Time;durP1;ratioP1;P1;durP2;ratioP2;P2;SDS_P1;SDS_P2;PMS_P1;PMS_P2;Temp;Humidity;BMP_temperature;BMP_pressure;BME280_temperature;BME280_humidity;BME280_pressure;Samples;Min_cycle;Max_cycle;Signal;HPM_P1;HPM_P2
2023/03/20 00:03:24;;;;;;;72.60;51.40;;;;;;;3.86;66.91;99420.02;434950;1254;125935;-67
2023/03/20 00:13:30;;;;;;;78.80;55.50;;;;;;;3.88;67.01;99415.29;435297;1254;139443;-67
2023/03/20 00:23:36;;;;;;;87.20;53.20;;;;;;;3.96;67.38;99405.11;435770;1258;140504;-67
2023/03/20 00:33:42;;;;;;;73.60;52.70;;;;;;;3.97;67.80;99406.77;435745;1257;139819;-66
2023/03/20 00:43:49;;;;;;;74.50;52.30;;;;;;;3.93;68.03;99400.72;435606;1259;139210;-67
2023/03/20 00:53:55;;;;;;;76.70;52.40;;;;;;;3.88;68.15;99396.40;435450;1259;139527;-66
2023/03/20 01:04:01;;;;;;;80.60;54.20;;;;;;;3.84;68.59;99386.52;435618;1256;140296;-66
2023/03/20 01:14:13;;;;;;;78.40;50.70;;;;;;;3.82;68.68;99379.70;435234;1257;140231;-67
2023/03/20 01:24:19;;;;;;;76.20;52.70;;;;;;;3.77;69.20;99380.73;436208;1258;139856;-66
2023/03/20 01:34:24;;;;;;;80.00;50.40;;;;;;;3.73;69.27;99381.92;435681;1256;141452;-67
2023/03/20 01:44:33;;;;;;;70.00;48.40;;;;;;;3.75;69.79;99381.15;436047;1256;139110;-66
2023/03/20 01:54:40;;;;;;;77.20;51.00;;;;;;;3.80;69.77;99378.72;436422;1259;140242;-67
2023/03/20 02:04:55;;;;;;;77.80;52.90;;;;;;;3.83;69.80;99381.02;435859;1256;139301;-66
2023/03/20 02:15:02;;;;;;;82.00;54.10;;;;;;;3.79;70.02;99384.44;436125;1259;141245;-65
2023/03/20 02:25:36;;;;;;;86.90;55.70;;;;;;;3.78;70.65;99385.53;436149;1256;140548;-65
2023/03/20 02:36:15;;;;;;;83.50;57.10;;;;;;;3.72;70.63;99383.35;435678;1259;140076;-66
2023/03/20 02:46:34;;;;;;;90.50;62.70;;;;;;;3.73;70.78;99383.48;435506;1256;140150;-65
2023/03/20 02:56:48;;;;;;;85.20;58.50;;;;;;;3.79;70.91;99374.75;435547;1259;139315;-66
2023/03/20 03:06:58;;;;;;;86.70;59.30;;;;;;;3.80;70.94;99372.83;435666;1254;142803;-64
2023/03/20 03:17:06;;;;;;;80.50;54.00;;;;;;;3.70;70.96;99370.46;435734;1259;139444;-66
2023/03/20 03:27:19;;;;;;;85.30;59.60;;;;;;;3.56;71.13;99372.69;435246;1258;139510;-65
2023/03/20 03:37:39;;;;;;;88.10;60.80;;;;;;;3.43;71.56;99372.35;435180;1257;140244;-66
2023/03/20 03:47:51;;;;;;;86.30;56.60;;;;;;;3.33;72.20;99370.27;435238;1260;140232;-66
2023/03/20 03:58:01;;;;;;;87.30;55.20;;;;;;;3.33;72.22;99361.64;435258;1256;139646;-65
2023/03/20 04:08:07;;;;;;;95.80;60.70;;;;;;;3.36;72.47;99357.70;435093;1256;140693;-66
2023/03/20 04:18:17;;;;;;;90.50;57.70;;;;;;;3.40;72.43;99360.17;435134;1259;139967;-65
2023/03/20 04:28:22;;;;;;;96.60;60.90;;;;;;;3.42;72.60;99364.27;435317;1259;140693;-65
2023/03/20 04:38:28;;;;;;;94.60;59.60;;;;;;;3.45;72.89;99364.67;435355;1259;139037;-65
2023/03/20 04:48:34;;;;;;;102.00;64.30;;;;;;;3.50;72.91;99369.66;435387;1259;140630;-65
2023/03/20 04:58:40;;;;;;;94.10;64.10;;;;;;;3.59;72.96;99373.45;435448;1256;141336;-67
2023/03/20 05:08:45;;;;;;;99.60;69.20;;;;;;;3.73;73.26;99378.63;435576;1256;139538;-65
2023/03/20 05:18:51;;;;;;;102.40;68.70;;;;;;;3.86;73.10;99379.85;435306;1259;141540;-66
2023/03/20 05:28:57;;;;;;;103.30;74.40;;;;;;;4.18;73.24;99384.30;435382;1259;139234;-64
2023/03/20 05:39:03;;;;;;;94.60;65.00;;;;;;;4.55;72.87;99389.00;435392;1259;139226;-65
2023/03/20 05:49:08;;;;;;;95.50;67.80;;;;;;;5.18;72.48;99392.02;435312;1256;139931;-66
2023/03/20 05:59:14;;;;;;;90.40;63.50;;;;;;;5.95;71.45;99397.19;434928;1258;139108;-66
2023/03/20 06:09:20;;;;;;;80.10;59.70;;;;;;;6.83;70.47;99405.04;434717;1256;140663;-65
2023/03/20 06:19:26;;;;;;;80.20;50.90;;;;;;;7.66;69.38;99403.98;434611;1259;140675;-65
2023/03/20 06:29:32;;;;;;;71.90;49.20;;;;;;;8.56;67.62;99403.85;434746;1259;140190;-66
2023/03/20 06:39:37;;;;;;;72.80;49.80;;;;;;;9.45;65.81;99408.70;434748;1256;141769;-66
2023/03/20 06:49:44;;;;;;;51.70;37.60;;;;;;;10.71;64.20;99408.08;435042;1259;139542;-66
2023/03/20 06:59:50;;;;;;;42.10;32.20;;;;;;;13.21;60.70;99403.70;435118;1259;139966;-66
2023/03/20 07:09:56;;;;;;;45.80;35.20;;;;;;;12.98;58.24;99405.35;435658;1259;141009;-66
2023/03/20 07:20:02;;;;;;;46.00;33.80;;;;;;;13.59;57.48;99405.85;435632;1259;138643;-67
2023/03/20 07:30:12;;;;;;;45.40;35.10;;;;;;;15.36;55.44;99403.41;436073;1259;139666;-68
2023/03/20 07:40:18;;;;;;;34.90;29.80;;;;;;;18.83;52.19;99400.81;435599;1259;140565;-67
2023/03/20 07:50:24;;;;;;;43.30;30.90;;;;;;;20.48;47.73;99395.25;435303;1255;140373;-65
2023/03/20 08:00:30;;;;;;;33.30;25.90;;;;;;;18.88;45.97;99391.12;435203;1259;139101;-66
2023/03/20 08:10:36;;;;;;;42.60;28.30;;;;;;;16.71;45.90;99402.66;435381;1257;139967;-67
2023/03/20 08:20:42;;;;;;;34.00;26.90;;;;;;;15.26;47.11;99408.81;435538;1260;139851;-67
2023/03/20 08:30:49;;;;;;;35.50;26.30;;;;;;;15.12;46.93;99411.39;435211;1258;141072;-67
2023/03/20 08:40:55;;;;;;;29.80;24.80;;;;;;;14.37;47.70;99415.17;434820;1259;138746;-66
2023/03/20 08:51:00;;;;;;;31.70;26.20;;;;;;;13.76;48.40;99418.66;435260;1258;138748;-67
2023/03/20 09:01:09;;;;;;;31.80;23.90;;;;;;;14.24;48.95;99422.52;435008;1254;138783;-67
2023/03/20 09:11:15;;;;;;;29.80;22.70;;;;;;;14.31;49.50;99428.70;436389;1254;139303;-67
2023/03/20 09:21:21;;;;;;;33.40;22.80;;;;;;;14.54;49.88;99436.81;435381;1255;139144;-66
2023/03/20 09:31:26;;;;;;;27.80;20.30;;;;;;;14.64;50.21;99436.70;435014;1259;140572;-67
2023/03/20 09:41:35;;;;;;;30.80;19.60;;;;;;;14.36;51.17;99435.24;435714;1259;139755;-67
2023/03/20 09:52:00;;;;;;;;;;;;;;;14.02;51.97;99439.30;434621;1260;140030;-68
2023/03/20 10:02:15;;;;;;;24.80;20.60;;;;;;;14.00;52.60;99438.23;434947;1257;124755;-66
2023/03/20 10:12:42;;;;;;;33.30;24.40;;;;;;;14.14;52.96;99441.33;436110;1257;139039;-68
2023/03/20 10:22:53;;;;;;;36.30;28.70;;;;;;;14.21;53.40;99435.30;437606;1257;139134;-66
2023/03/20 10:33:11;;;;;;;33.50;26.60;;;;;;;13.67;54.19;99439.71;435091;1259;139171;-66
2023/03/20 10:43:21;;;;;;;21.20;17.00;;;;;;;13.09;56.14;99433.83;435094;1257;139147;-67
2023/03/20 10:53:32;;;;;;;14.50;12.60;;;;;;;12.48;57.77;99434.02;435478;1259;139335;-65
2023/03/20 11:03:40;;;;;;;14.70;12.80;;;;;;;12.29;60.08;99439.23;435721;1260;141845;-67
2023/03/20 11:13:48;;;;;;;13.00;10.60;;;;;;;12.48;60.69;99434.56;435006;1257;138616;-65
2023/03/20 11:23:54;;;;;;;12.70;10.00;;;;;;;12.74;60.30;99427.35;435280;1257;140322;-67
2023/03/20 11:34:20;;;;;;;19.00;12.00;;;;;;;13.03;59.80;99421.48;435298;1258;140076;-68
2023/03/20 11:44:29;;;;;;;16.50;13.70;;;;;;;13.06;59.30;99414.05;434907;1254;138469;-66
2023/03/20 11:54:34;;;;;;;14.90;12.40;;;;;;;12.87;59.77;99403.14;434525;1259;139648;-66
2023/03/20 12:04:41;;;;;;;12.60;10.60;;;;;;;12.67;59.85;99401.38;434367;1254;140133;-67
2023/03/20 12:14:54;;;;;;;20.50;12.40;;;;;;;12.82;59.46;99388.07;435418;1256;138772;-67
2023/03/20 12:25:09;;;;;;;14.00;11.40;;;;;;;13.39;59.01;99376.33;434800;1257;139385;-66
2023/03/20 12:35:20;;;;;;;16.60;14.00;;;;;;;13.93;58.40;99372.60;434577;1255;139566;-67
2023/03/20 12:45:33;;;;;;;24.50;19.20;;;;;;;14.37;57.59;99362.27;435172;1259;140224;-66
2023/03/20 12:55:51;;;;;;;21.60;17.30;;;;;;;14.03;57.31;99358.57;435340;1257;139155;-67
2023/03/20 13:06:09;;;;;;;18.80;14.70;;;;;;;13.84;57.65;99357.81;436225;1256;138802;-68
2023/03/20 13:16:24;;;;;;;12.10;10.60;;;;;;;13.95;57.16;99349.74;435638;1260;240479;-67
2023/03/20 13:26:37;;;;;;;9.70;8.70;;;;;;;14.07;56.83;99344.04;435818;1256;139234;-67
2023/03/20 13:37:07;;;;;;;11.70;10.30;;;;;;;14.12;56.85;99335.30;436020;1257;138405;-66
2023/03/20 13:47:30;;;;;;;10.70;9.20;;;;;;;14.15;56.80;99330.52;435986;1260;138506;-68
2023/03/20 13:58:03;;;;;;;13.60;8.30;;;;;;;13.94;56.77;99329.73;435949;1257;139482;-67
2023/03/20 14:08:32;;;;;;;13.00;9.10;;;;;;;13.35;57.81;99330.73;435907;1256;138359;-68
2023/03/20 14:18:38;;;;;;;13.80;8.60;;;;;;;12.83;59.66;99326.58;435392;1256;138847;-68
2023/03/20 14:28:58;;;;;;;12.40;10.10;;;;;;;12.77;60.75;99325.95;435494;1260;138824;-67
2023/03/20 14:39:22;;;;;;;12.50;10.40;;;;;;;12.87;61.43;99327.30;436026;1255;138959;-68
2023/03/20 14:49:51;;;;;;;12.60;10.30;;;;;;;12.73;62.13;99331.51;435786;1258;139044;-68
2023/03/20 14:59:58;;;;;;;13.50;10.10;;;;;;;12.52;63.29;99319.59;435430;1260;140221;-67
2023/03/20 15:10:07;;;;;;;15.80;9.50;;;;;;;12.61;63.90;99311.70;435623;1256;140298;-68
2023/03/20 15:20:18;;;;;;;12.80;10.70;;;;;;;12.81;64.01;99309.28;435850;1256;140934;-67
2023/03/20 15:30:25;;;;;;;14.40;12.70;;;;;;;12.47;64.65;99301.73;435871;1257;138566;-67
2023/03/20 15:40:33;;;;;;;15.90;12.10;;;;;;;12.42;65.21;99299.84;436033;1256;138616;-68
2023/03/20 15:50:58;;;;;;;18.00;15.10;;;;;;;12.26;65.53;99309.29;435650;1256;138987;-67
2023/03/20 16:01:07;;;;;;;13.30;11.90;;;;;;;12.01;66.03;99313.19;435451;1256;140098;-68
2023/03/20 16:11:16;;;;;;;14.70;13.10;;;;;;;11.49;67.08;99317.80;435581;1258;139436;-67
2023/03/20 16:21:25;;;;;;;19.20;15.50;;;;;;;11.07;68.39;99327.24;435509;1256;139704;-66
2023/03/20 16:31:33;;;;;;;24.00;18.80;;;;;;;10.91;69.40;99327.17;435471;1256;138493;-73
2023/03/20 16:41:40;;;;;;;22.20;19.40;;;;;;;10.90;70.08;99324.57;437831;1255;139317;-74
2023/03/20 16:51:47;;;;;;;23.70;19.70;;;;;;;10.76;70.70;99326.95;437847;1256;139843;-73
2023/03/20 17:01:58;;;;;;;20.50;18.00;;;;;;;10.51;71.46;99340.52;437983;1259;139162;-72
2023/03/20 17:12:13;;;;;;;23.60;19.20;;;;;;;10.27;72.08;99346.65;437607;1255;139974;-72
2023/03/20 17:22:22;;;;;;;23.30;19.20;;;;;;;9.91;73.19;99353.86;438041;1258;140325;-72
2023/03/20 17:32:27;;;;;;;24.20;19.20;;;;;;;9.66;74.05;99355.66;437744;1260;139163;-72
2023/03/20 17:42:34;;;;;;;23.70;21.30;;;;;;;9.58;74.75;99355.48;437885;1257;139780;-71
2023/03/20 17:52:40;;;;;;;23.70;21.20;;;;;;;9.50;75.30;99357.36;437664;1256;139466;-73
2023/03/20 18:02:46;;;;;;;23.70;21.30;;;;;;;9.38;75.78;99357.58;437740;1255;140977;-72
2023/03/20 18:12:52;;;;;;;29.40;24.40;;;;;;;9.27;75.97;99353.54;437681;1256;140741;-73
2023/03/20 18:22:57;;;;;;;31.30;24.10;;;;;;;9.16;76.44;99345.48;437662;1260;139425;-73
2023/03/20 18:33:04;;;;;;;32.00;26.90;;;;;;;9.06;76.98;99352.58;437651;1255;139437;-72
2023/03/20 18:43:12;;;;;;;46.20;33.80;;;;;;;8.97;77.67;99354.70;438272;1256;139138;-72
2023/03/20 18:53:18;;;;;;;44.50;31.90;;;;;;;8.88;78.30;99360.98;437947;1256;139057;-74
2023/03/20 19:03:27;;;;;;;33.20;26.00;;;;;;;8.88;79.19;99367.65;437533;1256;140476;-72
2023/03/20 19:13:33;;;;;;;32.50;27.90;;;;;;;8.84;79.61;99362.77;438034;1256;139214;-72
2023/03/20 19:23:39;;;;;;;31.30;25.30;;;;;;;8.76;79.59;99361.33;438016;1256;139324;-72
2023/03/20 19:33:45;;;;;;;29.80;26.10;;;;;;;8.71;80.19;99364.27;437583;1258;139714;-72
2023/03/20 19:43:51;;;;;;;27.60;24.40;;;;;;;8.69;81.02;99370.81;437959;1255;139234;-73
2023/03/20 19:54:00;;;;;;;32.80;25.10;;;;;;;8.72;81.91;99372.91;437925;1254;139444;-74
2023/03/20 20:04:06;;;;;;;34.80;26.30;;;;;;;8.80;82.41;99374.23;437787;1258;140443;-73
2023/03/20 20:14:12;;;;;;;29.00;24.90;;;;;;;8.92;83.06;99370.89;437945;1258;139110;-73
2023/03/20 20:24:19;;;;;;;28.50;24.80;;;;;;;8.96;83.81;99373.56;437642;1254;139700;-74
2023/03/20 20:34:25;;;;;;;24.00;20.40;;;;;;;8.89;84.29;99376.65;437911;1256;139848;-73
2023/03/20 20:44:51;;;;;;;23.50;19.50;;;;;;;8.84;85.22;99378.52;437963;1256;139411;-73
2023/03/20 20:54:57;;;;;;;20.90;18.10;;;;;;;8.77;85.89;99381.70;437929;1254;140442;-73
2023/03/20 21:05:23;;;;;;;21.70;18.30;;;;;;;8.69;86.53;99385.34;438059;1254;139194;-74
2023/03/20 21:15:29;;;;;;;22.70;19.70;;;;;;;8.61;87.22;99384.09;441052;1256;141494;-73
2023/03/20 21:25:36;;;;;;;22.70;19.80;;;;;;;8.57;88.18;99379.10;441548;1256;138142;-72
2023/03/20 21:35:48;;;;;;;22.20;19.10;;;;;;;8.52;88.86;99385.27;438923;1256;139087;-73
2023/03/20 21:45:54;;;;;;;22.60;19.20;;;;;;;8.44;90.12;99390.23;438243;1255;139656;-75
2023/03/20 21:56:20;;;;;;;22.90;17.70;;;;;;;8.38;90.84;99391.48;437990;1254;139926;-72
2023/03/20 22:06:46;;;;;;;20.90;16.80;;;;;;;8.31;90.75;99392.23;438099;1256;139513;-72
2023/03/20 22:17:11;;;;;;;23.90;17.40;;;;;;;8.24;91.38;99389.63;438217;1254;140237;-73
2023/03/20 22:27:37;;;;;;;25.30;20.60;;;;;;;8.14;92.95;99395.63;437870;1256;139578;-74
2023/03/20 22:38:03;;;;;;;18.50;14.00;;;;;;;8.08;94.53;99388.96;437828;1254;140232;-75
2023/03/20 22:48:29;;;;;;;15.40;12.80;;;;;;;7.92;93.48;99389.02;437681;1259;139477;-73
2023/03/20 22:58:34;;;;;;;20.70;16.10;;;;;;;7.87;94.21;99393.98;435787;1255;139860;-74
2023/03/20 23:08:40;;;;;;;24.30;19.10;;;;;;;7.85;94.66;99396.86;438099;1258;140306;-74
2023/03/20 23:18:56;;;;;;;26.90;20.10;;;;;;;7.81;95.62;99392.73;438012;1259;139787;-76
2023/03/20 23:29:02;;;;;;;23.60;18.50;;;;;;;7.76;96.26;99396.18;437593;1259;139139;-75
2023/03/20 23:39:10;;;;;;;24.90;19.40;;;;;;;7.65;96.74;99388.19;438040;1254;139695;-74
2023/03/20 23:49:16;;;;;;;25.80;16.80;;;;;;;7.54;97.17;99388.32;437857;1259;140597;-73
2023/03/20 23:59:22;;;;;;;24.40;17.80;;;;;;;7.34;97.69;99383.27;435907;1259;139375;-73
